Terminal Aerodrome Forecast
Issued by NWS Sterling, VA

Current Version | Previous Version | Graphics & Text | Print | Product List | Glossary On
Versions: 1 2 3 4 5 6 7 8 9 10 11 12 13 14 15 16 17 18 19 20 21 22 23
000
FTUS41 KLWX 120832 AAA
TAFDCA
TAF AMD
KDCA 120832Z 1209/1312 19010KT P6SM OVC110
     FM121400 22009KT P6SM BKN070
     FM121700 27012G20KT P6SM BKN080
     FM122000 30018G33KT P6SM BKN050=

USA.gov is the U.S. government's official web portal to all federal, state and local government web resources and services.